sensor_id;sensor_type;location;lat;lon;timestamp;P1;durP1;ratioP1;P2;durP2;ratioP2
2722;SDS011;1369;53.216;10.396;2022-08-19T00:01:50;6.70;;;2.90;;
2722;SDS011;1369;53.216;10.396;2022-08-19T00:04:18;3.53;;;3.00;;
2722;SDS011;1369;53.216;10.396;2022-08-19T00:06:46;3.90;;;2.83;;
2722;SDS011;1369;53.216;10.396;2022-08-19T00:09:13;4.73;;;3.10;;
2722;SDS011;1369;53.216;10.396;2022-08-19T00:11:41;3.80;;;2.93;;
2722;SDS011;1369;53.216;10.396;2022-08-19T00:14:09;5.33;;;3.03;;
2722;SDS011;1369;53.216;10.396;2022-08-19T00:16:36;3.60;;;2.77;;
2722;SDS011;1369;53.216;10.396;2022-08-19T00:19:03;3.57;;;2.70;;
2722;SDS011;1369;53.216;10.396;2022-08-19T00:21:29;4.60;;;2.50;;
2722;SDS011;1369;53.216;10.396;2022-08-19T00:23:55;3.90;;;2.87;;
2722;SDS011;1369;53.216;10.396;2022-08-19T00:26:25;3.67;;;3.00;;
2722;SDS011;1369;53.216;10.396;2022-08-19T00:28:51;3.80;;;2.27;;
2722;SDS011;1369;53.216;10.396;2022-08-19T00:31:17;3.70;;;3.23;;
2722;SDS011;1369;53.216;10.396;2022-08-19T00:33:42;2.93;;;2.60;;
2722;SDS011;1369;53.216;10.396;2022-08-19T00:36:08;2.70;;;2.47;;
2722;SDS011;1369;53.216;10.396;2022-08-19T00:38:34;5.30;;;3.07;;
2722;SDS011;1369;53.216;10.396;2022-08-19T00:41:01;4.63;;;3.37;;
2722;SDS011;1369;53.216;10.396;2022-08-19T00:43:27;2.53;;;2.30;;
2722;SDS011;1369;53.216;10.396;2022-08-19T00:45:53;3.63;;;2.47;;
2722;SDS011;1369;53.216;10.396;2022-08-19T00:48:19;2.93;;;2.63;;
2722;SDS011;1369;53.216;10.396;2022-08-19T00:50:46;3.50;;;2.70;;
2722;SDS011;1369;53.216;10.396;2022-08-19T00:53:14;2.43;;;2.10;;
2722;SDS011;1369;53.216;10.396;2022-08-19T00:55:44;2.77;;;2.47;;
2722;SDS011;1369;53.216;10.396;2022-08-19T00:58:12;3.73;;;2.90;;
2722;SDS011;1369;53.216;10.396;2022-08-19T01:00:39;2.80;;;2.53;;
2722;SDS011;1369;53.216;10.396;2022-08-19T01:03:09;3.33;;;3.03;;
2722;SDS011;1369;53.216;10.396;2022-08-19T01:05:36;4.20;;;3.40;;
2722;SDS011;1369;53.216;10.396;2022-08-19T01:08:05;3.40;;;2.83;;
2722;SDS011;1369;53.216;10.396;2022-08-19T01:10:35;4.03;;;2.90;;
2722;SDS011;1369;53.216;10.396;2022-08-19T01:13:04;4.53;;;2.87;;
2722;SDS011;1369;53.216;10.396;2022-08-19T01:15:31;3.37;;;2.07;;
2722;SDS011;1369;53.216;10.396;2022-08-19T01:17:59;4.27;;;3.03;;
2722;SDS011;1369;53.216;10.396;2022-08-19T01:20:30;4.13;;;2.70;;
2722;SDS011;1369;53.216;10.396;2022-08-19T01:22:57;4.53;;;3.10;;
2722;SDS011;1369;53.216;10.396;2022-08-19T01:28:22;5.23;;;2.57;;
2722;SDS011;1369;53.216;10.396;2022-08-19T01:30:50;3.00;;;2.30;;
2722;SDS011;1369;53.216;10.396;2022-08-19T01:33:16;4.67;;;3.97;;
2722;SDS011;1369;53.216;10.396;2022-08-19T01:35:44;5.20;;;3.03;;
2722;SDS011;1369;53.216;10.396;2022-08-19T01:38:18;4.40;;;3.23;;
2722;SDS011;1369;53.216;10.396;2022-08-19T01:40:51;3.70;;;2.60;;
2722;SDS011;1369;53.216;10.396;2022-08-19T01:43:17;3.47;;;2.33;;
2722;SDS011;1369;53.216;10.396;2022-08-19T01:45:44;4.70;;;2.73;;
2722;SDS011;1369;53.216;10.396;2022-08-19T01:48:10;4.00;;;3.17;;
2722;SDS011;1369;53.216;10.396;2022-08-19T01:50:36;4.00;;;3.00;;
2722;SDS011;1369;53.216;10.396;2022-08-19T01:53:02;4.00;;;2.70;;
2722;SDS011;1369;53.216;10.396;2022-08-19T01:55:29;6.20;;;3.83;;
2722;SDS011;1369;53.216;10.396;2022-08-19T01:57:55;3.47;;;2.90;;
2722;SDS011;1369;53.216;10.396;2022-08-19T02:07:08;3.50;;;2.90;;
2722;SDS011;1369;53.216;10.396;2022-08-19T02:09:34;5.53;;;3.07;;
2722;SDS011;1369;53.216;10.396;2022-08-19T02:12:00;6.37;;;3.20;;
2722;SDS011;1369;53.216;10.396;2022-08-19T02:14:25;3.30;;;2.47;;
2722;SDS011;1369;53.216;10.396;2022-08-19T02:16:51;4.27;;;3.30;;
2722;SDS011;1369;53.216;10.396;2022-08-19T02:19:16;4.23;;;3.53;;
2722;SDS011;1369;53.216;10.396;2022-08-19T02:21:42;3.60;;;3.07;;
2722;SDS011;1369;53.216;10.396;2022-08-19T02:24:08;2.90;;;2.60;;
2722;SDS011;1369;53.216;10.396;2022-08-19T02:26:34;4.53;;;3.50;;
2722;SDS011;1369;53.216;10.396;2022-08-19T02:29:00;3.43;;;2.37;;
2722;SDS011;1369;53.216;10.396;2022-08-19T02:31:25;3.93;;;2.93;;
2722;SDS011;1369;53.216;10.396;2022-08-19T02:33:53;3.07;;;2.10;;
2722;SDS011;1369;53.216;10.396;2022-08-19T02:36:19;2.93;;;2.03;;
2722;SDS011;1369;53.216;10.396;2022-08-19T02:38:44;3.30;;;2.67;;
2722;SDS011;1369;53.216;10.396;2022-08-19T02:41:12;3.10;;;2.80;;
2722;SDS011;1369;53.216;10.396;2022-08-19T02:43:49;4.87;;;3.50;;
2722;SDS011;1369;53.216;10.396;2022-08-19T02:46:19;6.60;;;2.90;;
2722;SDS011;1369;53.216;10.396;2022-08-19T02:48:53;2.37;;;1.97;;
2722;SDS011;1369;53.216;10.396;2022-08-19T02:51:22;3.70;;;2.33;;
2722;SDS011;1369;53.216;10.396;2022-08-19T02:53:54;5.93;;;2.87;;
2722;SDS011;1369;53.216;10.396;2022-08-19T02:56:20;3.77;;;3.47;;
2722;SDS011;1369;53.216;10.396;2022-08-19T02:58:46;3.40;;;2.83;;
2722;SDS011;1369;53.216;10.396;2022-08-19T03:01:20;4.00;;;2.67;;
2722;SDS011;1369;53.216;10.396;2022-08-19T03:03:51;3.57;;;2.43;;
2722;SDS011;1369;53.216;10.396;2022-08-19T03:06:17;2.93;;;2.63;;
2722;SDS011;1369;53.216;10.396;2022-08-19T03:08:44;4.13;;;2.87;;
2722;SDS011;1369;53.216;10.396;2022-08-19T03:13:43;3.40;;;3.10;;
2722;SDS011;1369;53.216;10.396;2022-08-19T03:16:10;3.47;;;2.53;;
2722;SDS011;1369;53.216;10.396;2022-08-19T03:18:36;3.63;;;2.03;;
2722;SDS011;1369;53.216;10.396;2022-08-19T03:21:02;2.13;;;1.93;;
2722;SDS011;1369;53.216;10.396;2022-08-19T03:23:28;6.07;;;3.10;;
2722;SDS011;1369;53.216;10.396;2022-08-19T03:25:54;3.33;;;2.93;;
2722;SDS011;1369;53.216;10.396;2022-08-19T03:28:19;5.47;;;3.03;;
2722;SDS011;1369;53.216;10.396;2022-08-19T03:30:59;6.53;;;3.23;;
2722;SDS011;1369;53.216;10.396;2022-08-19T03:33:26;2.53;;;2.33;;
2722;SDS011;1369;53.216;10.396;2022-08-19T03:36:00;4.60;;;3.80;;
2722;SDS011;1369;53.216;10.396;2022-08-19T03:38:37;4.40;;;3.83;;
2722;SDS011;1369;53.216;10.396;2022-08-19T03:41:06;4.57;;;3.43;;
2722;SDS011;1369;53.216;10.396;2022-08-19T03:43:34;4.27;;;2.97;;
2722;SDS011;1369;53.216;10.396;2022-08-19T03:46:02;4.50;;;2.67;;
2722;SDS011;1369;53.216;10.396;2022-08-19T03:48:30;5.67;;;2.53;;
2722;SDS011;1369;53.216;10.396;2022-08-19T03:50:57;3.07;;;2.47;;
2722;SDS011;1369;53.216;10.396;2022-08-19T03:53:24;9.77;;;4.13;;
2722;SDS011;1369;53.216;10.396;2022-08-19T03:55:51;4.30;;;3.20;;
2722;SDS011;1369;53.216;10.396;2022-08-19T03:58:18;6.50;;;5.00;;
2722;SDS011;1369;53.216;10.396;2022-08-19T04:00:44;3.93;;;2.50;;
2722;SDS011;1369;53.216;10.396;2022-08-19T04:03:09;3.17;;;2.37;;
2722;SDS011;1369;53.216;10.396;2022-08-19T04:05:35;3.77;;;3.00;;
2722;SDS011;1369;53.216;10.396;2022-08-19T04:08:02;3.30;;;2.20;;
2722;SDS011;1369;53.216;10.396;2022-08-19T04:10:28;2.43;;;1.90;;
2722;SDS011;1369;53.216;10.396;2022-08-19T04:12:54;3.80;;;2.83;;
2722;SDS011;1369;53.216;10.396;2022-08-19T04:15:19;4.13;;;2.57;;
2722;SDS011;1369;53.216;10.396;2022-08-19T04:17:45;5.20;;;2.67;;
2722;SDS011;1369;53.216;10.396;2022-08-19T04:20:11;4.40;;;2.90;;
2722;SDS011;1369;53.216;10.396;2022-08-19T04:22:36;7.17;;;3.00;;
2722;SDS011;1369;53.216;10.396;2022-08-19T04:25:02;3.97;;;3.10;;
2722;SDS011;1369;53.216;10.396;2022-08-19T04:27:28;3.37;;;2.70;;
2722;SDS011;1369;53.216;10.396;2022-08-19T04:29:54;3.50;;;2.77;;
2722;SDS011;1369;53.216;10.396;2022-08-19T04:32:20;3.10;;;2.57;;
2722;SDS011;1369;53.216;10.396;2022-08-19T04:34:46;2.73;;;1.90;;
2722;SDS011;1369;53.216;10.396;2022-08-19T04:37:11;3.57;;;2.47;;
2722;SDS011;1369;53.216;10.396;2022-08-19T04:39:38;3.23;;;2.93;;
2722;SDS011;1369;53.216;10.396;2022-08-19T04:42:22;3.40;;;2.60;;
2722;SDS011;1369;53.216;10.396;2022-08-19T04:45:07;5.20;;;3.20;;
2722;SDS011;1369;53.216;10.396;2022-08-19T04:47:35;4.70;;;2.60;;
2722;SDS011;1369;53.216;10.396;2022-08-19T04:50:02;5.80;;;3.03;;
2722;SDS011;1369;53.216;10.396;2022-08-19T04:52:29;3.80;;;3.27;;
2722;SDS011;1369;53.216;10.396;2022-08-19T04:54:56;3.27;;;2.87;;
2722;SDS011;1369;53.216;10.396;2022-08-19T04:57:22;3.77;;;2.90;;
2722;SDS011;1369;53.216;10.396;2022-08-19T04:59:47;4.70;;;2.93;;
2722;SDS011;1369;53.216;10.396;2022-08-19T05:02:13;3.40;;;2.87;;
2722;SDS011;1369;53.216;10.396;2022-08-19T05:04:39;3.90;;;3.03;;
2722;SDS011;1369;53.216;10.396;2022-08-19T05:07:05;4.40;;;2.50;;
2722;SDS011;1369;53.216;10.396;2022-08-19T05:09:32;3.70;;;2.60;;
2722;SDS011;1369;53.216;10.396;2022-08-19T05:11:58;3.43;;;2.47;;
2722;SDS011;1369;53.216;10.396;2022-08-19T05:14:24;5.60;;;2.97;;
2722;SDS011;1369;53.216;10.396;2022-08-19T05:16:50;3.03;;;2.10;;
2722;SDS011;1369;53.216;10.396;2022-08-19T05:19:15;4.23;;;2.57;;
2722;SDS011;1369;53.216;10.396;2022-08-19T05:21:59;3.93;;;2.40;;
2722;SDS011;1369;53.216;10.396;2022-08-19T05:24:44;3.50;;;3.00;;
2722;SDS011;1369;53.216;10.396;2022-08-19T05:27:10;4.17;;;2.43;;
2722;SDS011;1369;53.216;10.396;2022-08-19T05:29:36;6.23;;;2.90;;
2722;SDS011;1369;53.216;10.396;2022-08-19T05:32:02;10.33;;;3.70;;
2722;SDS011;1369;53.216;10.396;2022-08-19T05:34:29;5.07;;;3.00;;
2722;SDS011;1369;53.216;10.396;2022-08-19T05:36:56;3.63;;;2.97;;
2722;SDS011;1369;53.216;10.396;2022-08-19T05:39:24;3.40;;;2.53;;
2722;SDS011;1369;53.216;10.396;2022-08-19T05:41:55;4.60;;;2.60;;
2722;SDS011;1369;53.216;10.396;2022-08-19T05:44:23;4.67;;;3.80;;
2722;SDS011;1369;53.216;10.396;2022-08-19T05:46:50;5.60;;;3.23;;
2722;SDS011;1369;53.216;10.396;2022-08-19T05:49:18;6.60;;;3.20;;
2722;SDS011;1369;53.216;10.396;2022-08-19T05:51:46;5.13;;;3.23;;
2722;SDS011;1369;53.216;10.396;2022-08-19T05:54:11;8.50;;;3.67;;
2722;SDS011;1369;53.216;10.396;2022-08-19T05:56:38;4.67;;;3.10;;
2722;SDS011;1369;53.216;10.396;2022-08-19T05:59:06;5.90;;;2.90;;
2722;SDS011;1369;53.216;10.396;2022-08-19T06:01:34;4.60;;;3.00;;
2722;SDS011;1369;53.216;10.396;2022-08-19T06:04:01;4.90;;;2.63;;
2722;SDS011;1369;53.216;10.396;2022-08-19T06:06:27;6.73;;;3.50;;
2722;SDS011;1369;53.216;10.396;2022-08-19T06:08:53;4.23;;;3.23;;
2722;SDS011;1369;53.216;10.396;2022-08-19T06:13:50;6.53;;;3.47;;
2722;SDS011;1369;53.216;10.396;2022-08-19T06:16:20;3.63;;;2.97;;
2722;SDS011;1369;53.216;10.396;2022-08-19T06:18:47;6.90;;;3.10;;
2722;SDS011;1369;53.216;10.396;2022-08-19T06:21:16;4.20;;;3.03;;
2722;SDS011;1369;53.216;10.396;2022-08-19T06:23:42;6.10;;;3.13;;
2722;SDS011;1369;53.216;10.396;2022-08-19T06:26:10;5.87;;;2.70;;
2722;SDS011;1369;53.216;10.396;2022-08-19T06:28:37;5.57;;;3.20;;
2722;SDS011;1369;53.216;10.396;2022-08-19T06:31:07;4.90;;;3.80;;
2722;SDS011;1369;53.216;10.396;2022-08-19T06:33:33;5.13;;;2.93;;
2722;SDS011;1369;53.216;10.396;2022-08-19T06:35:59;6.10;;;3.97;;
2722;SDS011;1369;53.216;10.396;2022-08-19T06:38:24;4.87;;;3.37;;
2722;SDS011;1369;53.216;10.396;2022-08-19T06:40:50;7.57;;;4.10;;
2722;SDS011;1369;53.216;10.396;2022-08-19T06:43:15;10.30;;;4.67;;
2722;SDS011;1369;53.216;10.396;2022-08-19T06:45:42;6.40;;;4.60;;
2722;SDS011;1369;53.216;10.396;2022-08-19T06:48:08;7.80;;;4.77;;
2722;SDS011;1369;53.216;10.396;2022-08-19T06:50:33;5.33;;;4.23;;
2722;SDS011;1369;53.216;10.396;2022-08-19T06:52:59;8.70;;;4.20;;
2722;SDS011;1369;53.216;10.396;2022-08-19T06:55:24;8.53;;;5.40;;
2722;SDS011;1369;53.216;10.396;2022-08-19T06:57:50;11.73;;;4.83;;
2722;SDS011;1369;53.216;10.396;2022-08-19T07:00:18;7.60;;;5.50;;
2722;SDS011;1369;53.216;10.396;2022-08-19T07:02:44;11.20;;;5.50;;
2722;SDS011;1369;53.216;10.396;2022-08-19T07:05:09;8.70;;;4.97;;
2722;SDS011;1369;53.216;10.396;2022-08-19T07:07:35;12.40;;;4.77;;
2722;SDS011;1369;53.216;10.396;2022-08-19T07:10:00;13.07;;;6.07;;
2722;SDS011;1369;53.216;10.396;2022-08-19T07:12:28;7.47;;;4.17;;
2722;SDS011;1369;53.216;10.396;2022-08-19T07:14:59;7.17;;;2.80;;
2722;SDS011;1369;53.216;10.396;2022-08-19T07:17:25;7.70;;;4.73;;
2722;SDS011;1369;53.216;10.396;2022-08-19T07:19:51;10.10;;;4.50;;
2722;SDS011;1369;53.216;10.396;2022-08-19T07:22:16;8.80;;;3.40;;
2722;SDS011;1369;53.216;10.396;2022-08-19T07:24:42;18.40;;;5.00;;
2722;SDS011;1369;53.216;10.396;2022-08-19T07:27:08;8.37;;;4.87;;
2722;SDS011;1369;53.216;10.396;2022-08-19T07:29:35;8.23;;;4.23;;
2722;SDS011;1369;53.216;10.396;2022-08-19T07:32:01;9.67;;;5.10;;
2722;SDS011;1369;53.216;10.396;2022-08-19T07:34:28;7.20;;;4.40;;
2722;SDS011;1369;53.216;10.396;2022-08-19T07:36:55;8.67;;;4.03;;
2722;SDS011;1369;53.216;10.396;2022-08-19T07:39:29;11.97;;;5.93;;
2722;SDS011;1369;53.216;10.396;2022-08-19T07:42:00;7.97;;;5.03;;
2722;SDS011;1369;53.216;10.396;2022-08-19T07:44:28;7.87;;;4.37;;
2722;SDS011;1369;53.216;10.396;2022-08-19T07:46:54;6.63;;;4.50;;
2722;SDS011;1369;53.216;10.396;2022-08-19T07:49:21;6.70;;;4.00;;
2722;SDS011;1369;53.216;10.396;2022-08-19T07:51:48;13.43;;;5.30;;
2722;SDS011;1369;53.216;10.396;2022-08-19T07:54:19;10.73;;;6.00;;
2722;SDS011;1369;53.216;10.396;2022-08-19T07:56:45;6.43;;;4.17;;
2722;SDS011;1369;53.216;10.396;2022-08-19T07:59:11;14.73;;;5.50;;
2722;SDS011;1369;53.216;10.396;2022-08-19T08:01:36;10.80;;;5.53;;
2722;SDS011;1369;53.216;10.396;2022-08-19T08:04:04;12.13;;;6.30;;
2722;SDS011;1369;53.216;10.396;2022-08-19T08:06:49;7.97;;;5.13;;
2722;SDS011;1369;53.216;10.396;2022-08-19T08:09:34;12.93;;;6.07;;
2722;SDS011;1369;53.216;10.396;2022-08-19T08:12:03;13.03;;;5.63;;
2722;SDS011;1369;53.216;10.396;2022-08-19T08:14:36;6.40;;;4.63;;
2722;SDS011;1369;53.216;10.396;2022-08-19T08:17:05;12.67;;;5.60;;
2722;SDS011;1369;53.216;10.396;2022-08-19T08:19:31;11.67;;;7.43;;
2722;SDS011;1369;53.216;10.396;2022-08-19T08:21:57;13.53;;;4.67;;
2722;SDS011;1369;53.216;10.396;2022-08-19T08:24:24;11.63;;;5.27;;
2722;SDS011;1369;53.216;10.396;2022-08-19T08:26:50;13.00;;;6.10;;
2722;SDS011;1369;53.216;10.396;2022-08-19T08:29:16;11.90;;;5.53;;
2722;SDS011;1369;53.216;10.396;2022-08-19T08:31:42;9.80;;;4.80;;
2722;SDS011;1369;53.216;10.396;2022-08-19T08:34:09;13.60;;;5.60;;
2722;SDS011;1369;53.216;10.396;2022-08-19T08:36:40;9.40;;;5.53;;
2722;SDS011;1369;53.216;10.396;2022-08-19T08:39:08;9.47;;;4.87;;
2722;SDS011;1369;53.216;10.396;2022-08-19T08:41:40;9.70;;;4.73;;
2722;SDS011;1369;53.216;10.396;2022-08-19T08:44:16;12.20;;;7.47;;
2722;SDS011;1369;53.216;10.396;2022-08-19T08:46:49;14.27;;;6.83;;
2722;SDS011;1369;53.216;10.396;2022-08-19T08:52:05;15.93;;;5.60;;
2722;SDS011;1369;53.216;10.396;2022-08-19T08:54:33;17.93;;;5.30;;
2722;SDS011;1369;53.216;10.396;2022-08-19T08:57:12;10.20;;;5.53;;
2722;SDS011;1369;53.216;10.396;2022-08-19T08:59:43;8.47;;;4.80;;
2722;SDS011;1369;53.216;10.396;2022-08-19T09:02:15;7.37;;;3.80;;
2722;SDS011;1369;53.216;10.396;2022-08-19T09:04:42;11.53;;;5.30;;
2722;SDS011;1369;53.216;10.396;2022-08-19T09:07:26;6.33;;;4.00;;
2722;SDS011;1369;53.216;10.396;2022-08-19T09:10:17;16.70;;;5.87;;
2722;SDS011;1369;53.216;10.396;2022-08-19T09:12:54;6.90;;;4.47;;
2722;SDS011;1369;53.216;10.396;2022-08-19T09:15:32;8.40;;;5.53;;
2722;SDS011;1369;53.216;10.396;2022-08-19T09:18:04;6.17;;;4.63;;
2722;SDS011;1369;53.216;10.396;2022-08-19T09:20:31;9.23;;;4.63;;
2722;SDS011;1369;53.216;10.396;2022-08-19T09:22:56;14.47;;;4.37;;
2722;SDS011;1369;53.216;10.396;2022-08-19T09:25:23;11.50;;;5.07;;
2722;SDS011;1369;53.216;10.396;2022-08-19T09:27:49;6.87;;;3.63;;
2722;SDS011;1369;53.216;10.396;2022-08-19T09:30:23;10.73;;;4.67;;
2722;SDS011;1369;53.216;10.396;2022-08-19T09:32:50;7.43;;;4.37;;
2722;SDS011;1369;53.216;10.396;2022-08-19T09:35:20;7.67;;;4.03;;
2722;SDS011;1369;53.216;10.396;2022-08-19T09:37:47;11.67;;;5.67;;
2722;SDS011;1369;53.216;10.396;2022-08-19T09:40:14;13.83;;;6.17;;
2722;SDS011;1369;53.216;10.396;2022-08-19T09:42:40;7.70;;;4.03;;
2722;SDS011;1369;53.216;10.396;2022-08-19T09:45:08;7.00;;;3.97;;
2722;SDS011;1369;53.216;10.396;2022-08-19T09:47:35;9.90;;;4.80;;
2722;SDS011;1369;53.216;10.396;2022-08-19T09:50:03;8.97;;;4.80;;
2722;SDS011;1369;53.216;10.396;2022-08-19T09:52:30;8.27;;;4.10;;
2722;SDS011;1369;53.216;10.396;2022-08-19T09:54:56;5.40;;;3.43;;
2722;SDS011;1369;53.216;10.396;2022-08-19T09:57:21;9.87;;;4.47;;
2722;SDS011;1369;53.216;10.396;2022-08-19T09:59:47;8.10;;;4.47;;
2722;SDS011;1369;53.216;10.396;2022-08-19T10:02:13;7.20;;;4.40;;
2722;SDS011;1369;53.216;10.396;2022-08-19T10:04:38;9.37;;;5.67;;
2722;SDS011;1369;53.216;10.396;2022-08-19T10:07:22;10.70;;;4.27;;
2722;SDS011;1369;53.216;10.396;2022-08-19T10:09:48;8.87;;;4.37;;
2722;SDS011;1369;53.216;10.396;2022-08-19T10:12:13;11.23;;;4.80;;
2722;SDS011;1369;53.216;10.396;2022-08-19T10:14:40;7.87;;;4.27;;
2722;SDS011;1369;53.216;10.396;2022-08-19T10:17:06;5.87;;;3.83;;
2722;SDS011;1369;53.216;10.396;2022-08-19T10:19:31;6.60;;;4.40;;
2722;SDS011;1369;53.216;10.396;2022-08-19T10:22:02;6.57;;;3.17;;
2722;SDS011;1369;53.216;10.396;2022-08-19T10:24:29;8.83;;;5.07;;
2722;SDS011;1369;53.216;10.396;2022-08-19T10:26:55;6.87;;;4.10;;
2722;SDS011;1369;53.216;10.396;2022-08-19T10:29:22;10.33;;;4.50;;
2722;SDS011;1369;53.216;10.396;2022-08-19T10:31:47;9.10;;;4.90;;
2722;SDS011;1369;53.216;10.396;2022-08-19T10:34:13;9.33;;;3.60;;
2722;SDS011;1369;53.216;10.396;2022-08-19T10:36:38;11.93;;;4.90;;
2722;SDS011;1369;53.216;10.396;2022-08-19T10:39:06;7.53;;;4.80;;
2722;SDS011;1369;53.216;10.396;2022-08-19T10:41:34;7.83;;;5.23;;
2722;SDS011;1369;53.216;10.396;2022-08-19T10:44:03;7.73;;;4.67;;
2722;SDS011;1369;53.216;10.396;2022-08-19T10:46:31;8.93;;;4.37;;
2722;SDS011;1369;53.216;10.396;2022-08-19T10:48:58;5.17;;;3.93;;
2722;SDS011;1369;53.216;10.396;2022-08-19T10:51:24;11.80;;;4.10;;
2722;SDS011;1369;53.216;10.396;2022-08-19T10:54:08;8.00;;;4.63;;
2722;SDS011;1369;53.216;10.396;2022-08-19T10:56:34;6.07;;;4.93;;
2722;SDS011;1369;53.216;10.396;2022-08-19T10:59:21;9.60;;;6.60;;
2722;SDS011;1369;53.216;10.396;2022-08-19T11:01:49;12.57;;;5.70;;
2722;SDS011;1369;53.216;10.396;2022-08-19T11:04:15;10.97;;;5.13;;
2722;SDS011;1369;53.216;10.396;2022-08-19T11:06:43;6.40;;;4.83;;
2722;SDS011;1369;53.216;10.396;2022-08-19T11:09:10;4.80;;;3.93;;
2722;SDS011;1369;53.216;10.396;2022-08-19T11:11:36;8.50;;;4.77;;
2722;SDS011;1369;53.216;10.396;2022-08-19T11:14:05;13.00;;;7.00;;
2722;SDS011;1369;53.216;10.396;2022-08-19T11:16:31;9.00;;;4.33;;
2722;SDS011;1369;53.216;10.396;2022-08-19T11:18:57;12.10;;;5.67;;
2722;SDS011;1369;53.216;10.396;2022-08-19T11:21:25;9.20;;;4.87;;
2722;SDS011;1369;53.216;10.396;2022-08-19T11:23:54;11.80;;;5.17;;
2722;SDS011;1369;53.216;10.396;2022-08-19T11:26:22;8.17;;;4.40;;
2722;SDS011;1369;53.216;10.396;2022-08-19T11:28:49;7.43;;;4.63;;
2722;SDS011;1369;53.216;10.396;2022-08-19T11:31:20;6.03;;;3.77;;
2722;SDS011;1369;53.216;10.396;2022-08-19T11:33:47;6.03;;;4.00;;
2722;SDS011;1369;53.216;10.396;2022-08-19T11:36:17;10.63;;;5.00;;
2722;SDS011;1369;53.216;10.396;2022-08-19T11:38:44;6.97;;;4.27;;
2722;SDS011;1369;53.216;10.396;2022-08-19T11:41:13;6.23;;;3.80;;
2722;SDS011;1369;53.216;10.396;2022-08-19T11:43:39;5.37;;;3.57;;
2722;SDS011;1369;53.216;10.396;2022-08-19T11:46:06;11.63;;;4.43;;
2722;SDS011;1369;53.216;10.396;2022-08-19T11:48:33;7.30;;;3.70;;
2722;SDS011;1369;53.216;10.396;2022-08-19T11:51:02;6.37;;;5.03;;
2722;SDS011;1369;53.216;10.396;2022-08-19T11:53:31;9.50;;;4.20;;
2722;SDS011;1369;53.216;10.396;2022-08-19T11:55:57;11.90;;;5.53;;
2722;SDS011;1369;53.216;10.396;2022-08-19T11:58:23;10.67;;;5.77;;
2722;SDS011;1369;53.216;10.396;2022-08-19T12:00:49;11.80;;;5.67;;
2722;SDS011;1369;53.216;10.396;2022-08-19T12:03:15;18.73;;;7.50;;
2722;SDS011;1369;53.216;10.396;2022-08-19T12:05:41;10.37;;;5.60;;
2722;SDS011;1369;53.216;10.396;2022-08-19T12:08:07;13.47;;;5.90;;
2722;SDS011;1369;53.216;10.396;2022-08-19T12:10:33;10.60;;;6.43;;
2722;SDS011;1369;53.216;10.396;2022-08-19T12:12:59;9.20;;;5.80;;
2722;SDS011;1369;53.216;10.396;2022-08-19T12:15:26;10.40;;;5.23;;
2722;SDS011;1369;53.216;10.396;2022-08-19T12:17:53;13.63;;;6.40;;
2722;SDS011;1369;53.216;10.396;2022-08-19T12:20:21;9.17;;;4.93;;
2722;SDS011;1369;53.216;10.396;2022-08-19T12:22:47;12.63;;;4.97;;
2722;SDS011;1369;53.216;10.396;2022-08-19T12:25:13;9.73;;;4.80;;
2722;SDS011;1369;53.216;10.396;2022-08-19T12:27:39;18.60;;;6.60;;
2722;SDS011;1369;53.216;10.396;2022-08-19T12:30:05;7.57;;;4.80;;
2722;SDS011;1369;53.216;10.396;2022-08-19T12:32:33;10.23;;;6.03;;
2722;SDS011;1369;53.216;10.396;2022-08-19T12:34:59;9.93;;;5.50;;
2722;SDS011;1369;53.216;10.396;2022-08-19T12:37:24;8.90;;;6.40;;
2722;SDS011;1369;53.216;10.396;2022-08-19T12:39:50;8.37;;;5.20;;
2722;SDS011;1369;53.216;10.396;2022-08-19T12:42:16;8.10;;;5.53;;
2722;SDS011;1369;53.216;10.396;2022-08-19T12:44:44;13.50;;;8.23;;
2722;SDS011;1369;53.216;10.396;2022-08-19T12:47:11;9.33;;;6.47;;
2722;SDS011;1369;53.216;10.396;2022-08-19T12:49:38;9.70;;;5.40;;
2722;SDS011;1369;53.216;10.396;2022-08-19T12:52:06;7.07;;;5.40;;
2722;SDS011;1369;53.216;10.396;2022-08-19T12:54:33;9.63;;;6.40;;
2722;SDS011;1369;53.216;10.396;2022-08-19T12:56:59;7.70;;;5.13;;
2722;SDS011;1369;53.216;10.396;2022-08-19T12:59:25;8.20;;;5.40;;
2722;SDS011;1369;53.216;10.396;2022-08-19T13:01:51;8.97;;;5.80;;
2722;SDS011;1369;53.216;10.396;2022-08-19T13:04:17;11.80;;;6.57;;
2722;SDS011;1369;53.216;10.396;2022-08-19T13:06:43;8.03;;;4.90;;
2722;SDS011;1369;53.216;10.396;2022-08-19T13:09:08;11.20;;;6.10;;
2722;SDS011;1369;53.216;10.396;2022-08-19T13:11:35;10.43;;;6.70;;
2722;SDS011;1369;53.216;10.396;2022-08-19T13:14:02;11.47;;;7.03;;
2722;SDS011;1369;53.216;10.396;2022-08-19T13:16:27;11.37;;;6.53;;
2722;SDS011;1369;53.216;10.396;2022-08-19T13:18:53;9.43;;;4.50;;
2722;SDS011;1369;53.216;10.396;2022-08-19T13:21:21;9.20;;;7.17;;
2722;SDS011;1369;53.216;10.396;2022-08-19T13:23:48;12.43;;;7.30;;
2722;SDS011;1369;53.216;10.396;2022-08-19T13:26:15;7.50;;;5.50;;
2722;SDS011;1369;53.216;10.396;2022-08-19T13:28:41;12.50;;;5.43;;
2722;SDS011;1369;53.216;10.396;2022-08-19T13:31:27;11.17;;;5.03;;
2722;SDS011;1369;53.216;10.396;2022-08-19T13:34:12;9.67;;;6.07;;
2722;SDS011;1369;53.216;10.396;2022-08-19T13:36:38;7.13;;;5.20;;
2722;SDS011;1369;53.216;10.396;2022-08-19T13:39:04;7.83;;;5.67;;
2722;SDS011;1369;53.216;10.396;2022-08-19T13:41:30;11.13;;;5.70;;
2722;SDS011;1369;53.216;10.396;2022-08-19T13:43:56;11.17;;;7.33;;
2722;SDS011;1369;53.216;10.396;2022-08-19T13:46:22;7.37;;;5.00;;
2722;SDS011;1369;53.216;10.396;2022-08-19T13:48:48;7.43;;;5.50;;
2722;SDS011;1369;53.216;10.396;2022-08-19T13:51:14;9.60;;;6.10;;
2722;SDS011;1369;53.216;10.396;2022-08-19T13:53:41;8.60;;;4.80;;
2722;SDS011;1369;53.216;10.396;2022-08-19T13:56:09;8.33;;;4.90;;
2722;SDS011;1369;53.216;10.396;2022-08-19T13:58:36;9.87;;;5.50;;
2722;SDS011;1369;53.216;10.396;2022-08-19T14:01:02;7.30;;;5.00;;
2722;SDS011;1369;53.216;10.396;2022-08-19T14:03:29;9.90;;;5.30;;
2722;SDS011;1369;53.216;10.396;2022-08-19T14:05:55;7.40;;;4.70;;
2722;SDS011;1369;53.216;10.396;2022-08-19T14:08:21;9.13;;;5.67;;
2722;SDS011;1369;53.216;10.396;2022-08-19T14:10:47;5.63;;;3.67;;
2722;SDS011;1369;53.216;10.396;2022-08-19T14:13:14;11.23;;;5.50;;
2722;SDS011;1369;53.216;10.396;2022-08-19T14:15:42;7.47;;;4.77;;
2722;SDS011;1369;53.216;10.396;2022-08-19T14:18:08;6.90;;;4.83;;
2722;SDS011;1369;53.216;10.396;2022-08-19T14:20:34;7.57;;;5.40;;
2722;SDS011;1369;53.216;10.396;2022-08-19T14:23:00;6.80;;;4.43;;
2722;SDS011;1369;53.216;10.396;2022-08-19T14:25:27;6.20;;;4.60;;
2722;SDS011;1369;53.216;10.396;2022-08-19T14:27:55;4.87;;;3.93;;
2722;SDS011;1369;53.216;10.396;2022-08-19T14:30:22;7.83;;;3.97;;
2722;SDS011;1369;53.216;10.396;2022-08-19T14:32:56;8.03;;;5.67;;
2722;SDS011;1369;53.216;10.396;2022-08-19T14:35:23;7.10;;;4.63;;
2722;SDS011;1369;53.216;10.396;2022-08-19T14:37:50;5.57;;;4.30;;
2722;SDS011;1369;53.216;10.396;2022-08-19T14:40:19;10.23;;;6.73;;
2722;SDS011;1369;53.216;10.396;2022-08-19T14:42:50;10.60;;;6.43;;
2722;SDS011;1369;53.216;10.396;2022-08-19T14:45:17;7.50;;;5.07;;
2722;SDS011;1369;53.216;10.396;2022-08-19T14:47:43;6.23;;;5.27;;
2722;SDS011;1369;53.216;10.396;2022-08-19T14:50:09;10.53;;;5.57;;
2722;SDS011;1369;53.216;10.396;2022-08-19T14:52:36;9.23;;;5.17;;
2722;SDS011;1369;53.216;10.396;2022-08-19T14:55:02;7.73;;;5.03;;
2722;SDS011;1369;53.216;10.396;2022-08-19T14:57:28;7.13;;;5.10;;
2722;SDS011;1369;53.216;10.396;2022-08-19T14:59:54;5.83;;;4.20;;
2722;SDS011;1369;53.216;10.396;2022-08-19T15:02:19;6.83;;;4.83;;
2722;SDS011;1369;53.216;10.396;2022-08-19T15:04:45;6.10;;;4.27;;
2722;SDS011;1369;53.216;10.396;2022-08-19T15:07:10;6.57;;;5.00;;
2722;SDS011;1369;53.216;10.396;2022-08-19T15:09:37;9.00;;;5.53;;
2722;SDS011;1369;53.216;10.396;2022-08-19T15:12:02;10.20;;;5.93;;
2722;SDS011;1369;53.216;10.396;2022-08-19T15:14:29;9.83;;;4.40;;
2722;SDS011;1369;53.216;10.396;2022-08-19T15:16:59;8.10;;;5.60;;
2722;SDS011;1369;53.216;10.396;2022-08-19T15:19:25;6.67;;;4.63;;